createdAt,value
2023-02-04T00:00:26.556Z,18.51
2023-02-04T00:02:53.659Z,18.53
2023-02-04T00:05:22.033Z,18.53
2023-02-04T00:07:49.749Z,18.53
2023-02-04T00:10:16.899Z,18.52
2023-02-04T00:12:43.948Z,18.51
2023-02-04T00:15:11.400Z,18.50
2023-02-04T00:17:40.692Z,18.48
2023-02-04T00:20:07.910Z,18.47
2023-02-04T00:22:35.653Z,18.46
2023-02-04T00:25:02.766Z,18.47
2023-02-04T00:27:30.524Z,18.46
2023-02-04T00:29:58.661Z,18.45
2023-02-04T00:32:27.525Z,18.45
2023-02-04T00:34:57.907Z,18.43
2023-02-04T00:37:26.675Z,18.43
2023-02-04T00:39:53.984Z,18.43
2023-02-04T00:42:21.079Z,18.42
2023-02-04T00:44:48.145Z,18.41
2023-02-04T00:47:15.296Z,18.40
2023-02-04T00:49:42.655Z,18.39
2023-02-04T00:52:09.572Z,18.37
2023-02-04T00:54:36.536Z,18.36
2023-02-04T00:57:04.614Z,18.34
2023-02-04T00:59:31.667Z,18.32
2023-02-04T01:01:59.017Z,18.31
2023-02-04T01:04:29.785Z,18.29
2023-02-04T01:06:56.826Z,18.29
2023-02-04T01:09:23.791Z,18.28
2023-02-04T01:11:50.748Z,18.30
2023-02-04T01:14:17.698Z,18.31
2023-02-04T01:16:45.626Z,18.33
2023-02-04T01:19:12.864Z,18.34
2023-02-04T01:21:41.018Z,18.34
2023-02-04T01:24:08.508Z,18.36
2023-02-04T01:26:55.424Z,18.38
2023-02-04T01:29:22.350Z,18.38
2023-02-04T01:31:51.208Z,18.39
2023-02-04T01:34:18.380Z,18.40
2023-02-04T01:36:45.467Z,18.40
2023-02-04T01:39:12.516Z,18.38
2023-02-04T01:41:41.064Z,18.36
2023-02-04T01:44:08.150Z,18.34
2023-02-04T01:46:37.627Z,18.34
2023-02-04T01:49:06.700Z,18.34
2023-02-04T01:51:34.447Z,18.34
2023-02-04T01:54:01.827Z,18.35
2023-02-04T01:56:31.114Z,18.34
2023-02-04T01:59:01.547Z,18.33
2023-02-04T02:01:47.443Z,18.32
2023-02-04T02:04:18.040Z,18.31
2023-02-04T02:06:53.156Z,18.30
2023-02-04T02:09:20.364Z,18.28
2023-02-04T02:11:48.341Z,18.26
2023-02-04T02:14:15.775Z,18.25
2023-02-04T02:16:43.255Z,18.24
2023-02-04T02:19:18.278Z,18.24
2023-02-04T02:21:52.212Z,18.24
2023-02-04T02:24:33.983Z,18.24
2023-02-04T02:27:10.860Z,18.25
2023-02-04T02:29:41.087Z,18.24
2023-02-04T02:32:11.262Z,18.24
2023-02-04T02:34:39.797Z,18.23
2023-02-04T02:37:09.621Z,18.22
2023-02-04T02:39:39.093Z,18.21
2023-02-04T02:42:06.554Z,18.20
2023-02-04T02:44:34.398Z,18.19
2023-02-04T02:47:01.972Z,18.17
2023-02-04T02:49:32.047Z,18.17
2023-02-04T02:52:01.094Z,18.16
2023-02-04T02:54:32.146Z,18.15
2023-02-04T02:57:01.729Z,18.13
2023-02-04T02:59:29.151Z,18.13
2023-02-04T03:01:59.812Z,18.12
2023-02-04T03:04:32.601Z,18.11
2023-02-04T03:07:00.466Z,18.10
2023-02-04T03:09:30.309Z,18.09
2023-02-04T03:11:57.445Z,18.10
2023-02-04T03:14:26.322Z,18.08
2023-02-04T03:16:55.721Z,18.08
2023-02-04T03:19:24.718Z,18.07
2023-02-04T03:21:52.586Z,18.07
2023-02-04T03:24:22.138Z,18.06
2023-02-04T03:26:49.472Z,18.06
2023-02-04T03:29:17.014Z,18.07
2023-02-04T03:31:44.287Z,18.08
2023-02-04T03:34:11.354Z,18.07
2023-02-04T03:36:38.427Z,18.08
2023-02-04T03:39:05.359Z,18.10
2023-02-04T03:41:35.784Z,18.11
2023-02-04T03:44:02.821Z,18.13
2023-02-04T03:46:29.922Z,18.14
2023-02-04T03:48:57.045Z,18.15
2023-02-04T03:51:24.124Z,18.16
2023-02-04T03:53:51.092Z,18.15
2023-02-04T03:56:18.107Z,18.15
2023-02-04T03:58:45.216Z,18.13
2023-02-04T04:01:12.321Z,18.13
2023-02-04T04:03:39.245Z,18.12
2023-02-04T04:06:08.996Z,18.10
2023-02-04T04:08:37.030Z,18.09
2023-02-04T04:11:04.104Z,18.08
2023-02-04T04:13:31.317Z,18.07
2023-02-04T04:15:58.392Z,18.08
2023-02-04T04:18:25.533Z,18.08
2023-02-04T04:20:52.601Z,18.08
2023-02-04T04:23:19.620Z,18.07
2023-02-04T04:25:46.664Z,18.06
2023-02-04T04:28:13.766Z,18.06
2023-02-04T04:30:40.915Z,18.04
2023-02-04T04:33:08.185Z,18.03
2023-02-04T04:35:35.842Z,18.00
2023-02-04T04:38:03.841Z,18.00
2023-02-04T04:40:31.365Z,17.99
2023-02-04T04:42:58.751Z,17.98
2023-02-04T04:45:25.903Z,17.98
2023-02-04T04:47:53.368Z,17.98
2023-02-04T04:50:20.414Z,17.97
2023-02-04T04:52:47.565Z,17.97
2023-02-04T04:55:15.124Z,17.97
2023-02-04T04:57:42.093Z,17.96
2023-02-04T05:00:12.588Z,17.97
2023-02-04T05:02:39.640Z,17.98
2023-02-04T05:05:07.136Z,17.97
2023-02-04T05:07:34.437Z,17.98
2023-02-04T05:10:01.706Z,17.98
2023-02-04T05:12:28.761Z,17.99
2023-02-04T05:14:55.796Z,17.98
2023-02-04T05:17:23.077Z,17.98
2023-02-04T05:19:51.328Z,17.97
2023-02-04T05:22:18.268Z,17.97
2023-02-04T05:24:45.429Z,17.96
2023-02-04T05:27:12.439Z,17.96
2023-02-04T05:29:39.515Z,17.96
2023-02-04T05:32:06.891Z,17.95
2023-02-04T05:34:33.924Z,17.94
2023-02-04T05:37:01.066Z,17.93
2023-02-04T05:39:28.654Z,17.93
2023-02-04T05:41:55.674Z,17.92
2023-02-04T05:44:22.824Z,17.91
2023-02-04T05:46:49.866Z,17.91
2023-02-04T05:49:20.376Z,17.91
2023-02-04T05:51:47.561Z,17.91
2023-02-04T05:54:19.572Z,17.91
2023-02-04T05:56:48.121Z,17.90
2023-02-04T05:59:15.146Z,17.92
2023-02-04T06:01:42.171Z,17.92
2023-02-04T06:04:09.490Z,17.93
2023-02-04T06:06:36.803Z,17.93
2023-02-04T06:09:04.399Z,17.93
2023-02-04T06:11:33.273Z,17.92
2023-02-04T06:14:00.442Z,17.92
2023-02-04T06:16:31.894Z,17.92
2023-02-04T06:18:59.709Z,17.92
2023-02-04T06:21:26.756Z,17.92
2023-02-04T06:23:53.700Z,17.92
2023-02-04T06:26:20.951Z,17.92
2023-02-04T06:28:48.516Z,17.92
2023-02-04T06:31:15.642Z,17.92
2023-02-04T06:33:42.772Z,17.92
2023-02-04T06:36:10.796Z,17.93
2023-02-04T06:38:37.933Z,17.93
2023-02-04T06:41:05.189Z,17.93
2023-02-04T06:43:32.342Z,17.93
2023-02-04T06:45:59.422Z,17.93
2023-02-04T06:48:26.736Z,17.92
2023-02-04T06:50:53.921Z,17.92
2023-02-04T06:53:21.034Z,17.93
2023-02-04T06:55:47.995Z,17.92
2023-02-04T06:58:15.124Z,17.93
2023-02-04T07:00:42.172Z,17.93
2023-02-04T07:03:09.229Z,17.92
2023-02-04T07:05:36.371Z,17.92
2023-02-04T07:08:03.521Z,17.92
2023-02-04T07:10:31.124Z,17.91
2023-02-04T07:12:59.033Z,17.91
2023-02-04T07:15:26.176Z,17.92
2023-02-04T07:17:54.151Z,17.93
2023-02-04T07:20:21.732Z,17.94
2023-02-04T07:22:48.779Z,17.95
2023-02-04T07:25:18.023Z,17.97
2023-02-04T07:27:45.305Z,18.01
2023-02-04T07:30:13.713Z,18.08
2023-02-04T07:32:40.944Z,18.14
2023-02-04T07:35:08.582Z,18.20
2023-02-04T07:37:35.596Z,18.25
2023-02-04T07:40:02.648Z,18.27
2023-02-04T07:42:29.752Z,18.28
2023-02-04T07:45:04.389Z,18.28
2023-02-04T07:47:31.565Z,18.28
2023-02-04T07:49:58.679Z,18.28
2023-02-04T07:52:26.320Z,18.29
2023-02-04T07:54:53.479Z,18.28
2023-02-04T07:57:20.944Z,18.28
2023-02-04T07:59:48.385Z,18.27
2023-02-04T08:02:15.426Z,18.26
2023-02-04T08:04:42.489Z,18.24
2023-02-04T08:07:09.538Z,18.24
2023-02-04T08:09:36.662Z,18.22
2023-02-04T08:12:04.774Z,18.21
2023-02-04T08:14:31.874Z,18.21
2023-02-04T08:16:58.896Z,18.21
2023-02-04T08:19:26.197Z,18.21
2023-02-04T08:21:54.025Z,18.21
2023-02-04T08:24:21.011Z,18.21
2023-02-04T08:26:48.121Z,18.23
2023-02-04T08:29:16.547Z,18.24
2023-02-04T08:31:44.000Z,18.25
2023-02-04T08:34:10.992Z,18.27
2023-02-04T08:36:38.054Z,18.29
2023-02-04T08:39:05.749Z,18.30
2023-02-04T08:41:33.744Z,18.31
2023-02-04T08:44:02.267Z,18.32
2023-02-04T08:46:29.524Z,18.33
2023-02-04T08:48:56.882Z,18.34
2023-02-04T08:51:24.385Z,18.37
2023-02-04T08:53:52.664Z,18.38
2023-02-04T08:56:20.858Z,18.39
2023-02-04T08:58:53.013Z,18.40
2023-02-04T09:01:21.159Z,18.41
2023-02-04T09:03:48.949Z,18.42
2023-02-04T09:06:16.355Z,18.42
2023-02-04T09:08:43.455Z,18.42
2023-02-04T09:11:12.829Z,18.41
2023-02-04T09:13:39.910Z,18.41
2023-02-04T09:16:07.515Z,18.39
2023-02-04T09:18:35.036Z,18.38
2023-02-04T09:21:02.494Z,18.36
2023-02-04T09:23:30.354Z,18.35
2023-02-04T09:25:57.422Z,18.34
2023-02-04T09:28:24.878Z,18.35
2023-02-04T09:30:51.914Z,18.34
2023-02-04T09:33:19.768Z,18.34
2023-02-04T09:35:46.762Z,18.33
2023-02-04T09:38:13.934Z,18.33
2023-02-04T09:40:50.287Z,18.35
2023-02-04T09:43:23.976Z,18.36
2023-02-04T09:45:51.565Z,18.37
2023-02-04T09:48:19.036Z,18.39
2023-02-04T09:50:46.330Z,18.40
2023-02-04T09:53:18.320Z,18.42
2023-02-04T09:55:47.553Z,18.43
2023-02-04T09:58:19.483Z,18.45
2023-02-04T10:00:52.367Z,18.45
2023-02-04T10:03:23.885Z,18.44
2023-02-04T10:05:52.390Z,18.43
2023-02-04T10:08:28.805Z,18.42
2023-02-04T10:10:58.073Z,18.42
2023-02-04T10:13:33.497Z,18.42
2023-02-04T10:16:01.692Z,18.42
2023-02-04T10:18:34.243Z,18.43
2023-02-04T10:21:23.167Z,18.44
2023-02-04T10:23:54.488Z,18.45
2023-02-04T10:26:22.747Z,18.46
2023-02-04T10:28:50.034Z,18.46
2023-02-04T10:31:47.759Z,18.47
2023-02-04T10:34:40.409Z,18.48
2023-02-04T10:37:20.859Z,18.49
2023-02-04T10:39:49.416Z,18.49
2023-02-04T10:42:23.025Z,18.50
2023-02-04T10:44:59.438Z,18.51
2023-02-04T10:47:31.249Z,18.52
2023-02-04T10:50:08.646Z,18.53
2023-02-04T10:52:39.535Z,18.54
2023-02-04T10:55:13.461Z,18.54
2023-02-04T10:57:42.416Z,18.54
2023-02-04T11:00:19.529Z,18.54
2023-02-04T11:03:08.319Z,18.54
2023-02-04T11:05:36.820Z,18.54
2023-02-04T11:08:22.244Z,18.54
2023-02-04T11:11:01.434Z,18.54
2023-02-04T11:13:57.572Z,18.54
2023-02-04T11:16:25.572Z,18.55
2023-02-04T11:18:55.772Z,18.55
2023-02-04T11:21:25.872Z,18.55
2023-02-04T11:24:16.748Z,18.55
2023-02-04T11:27:05.282Z,18.55
2023-02-04T11:29:43.103Z,18.56
2023-02-04T11:32:30.596Z,18.56
2023-02-04T11:35:30.172Z,18.56
2023-02-04T11:37:58.793Z,18.57
2023-02-04T11:40:28.599Z,18.57
2023-02-04T11:43:16.300Z,18.57
2023-02-04T11:45:43.661Z,18.56
2023-02-04T11:48:13.162Z,18.56
2023-02-04T11:50:41.766Z,18.56
2023-02-04T11:53:12.520Z,18.56
2023-02-04T11:55:47.795Z,18.57
2023-02-04T11:58:17.788Z,18.57
2023-02-04T12:00:45.893Z,18.58
2023-02-04T12:03:36.359Z,18.57
2023-02-04T12:06:03.994Z,18.56
2023-02-04T12:08:37.170Z,18.54
2023-02-04T12:11:26.626Z,18.52
2023-02-04T12:13:58.980Z,18.50
2023-02-04T12:16:28.086Z,18.49
2023-02-04T12:18:55.831Z,18.48
2023-02-04T12:21:23.542Z,18.47
2023-02-04T12:23:50.557Z,18.46
2023-02-04T12:26:17.622Z,18.45
2023-02-04T12:28:45.094Z,18.45
2023-02-04T12:31:16.512Z,18.45
2023-02-04T12:33:43.567Z,18.44
2023-02-04T12:36:10.803Z,18.45
2023-02-04T12:38:39.216Z,18.44
2023-02-04T12:41:06.096Z,18.43
2023-02-04T12:43:33.104Z,18.44
2023-02-04T12:46:00.040Z,18.44
2023-02-04T12:48:27.441Z,18.45
2023-02-04T12:50:54.456Z,18.43
2023-02-04T12:53:21.838Z,18.43
2023-02-04T12:55:49.211Z,18.44
2023-02-04T12:58:16.174Z,18.44
2023-02-04T13:00:46.246Z,18.45
2023-02-04T13:03:13.274Z,18.45
2023-02-04T13:05:40.364Z,18.45
2023-02-04T13:08:08.620Z,18.44
2023-02-04T13:10:35.960Z,18.43
2023-02-04T13:13:04.645Z,18.43
2023-02-04T13:15:32.569Z,18.43
2023-02-04T13:17:59.732Z,18.44
2023-02-04T13:20:26.796Z,18.45
2023-02-04T13:22:53.783Z,18.46
2023-02-04T13:25:22.050Z,18.48
2023-02-04T13:27:49.098Z,18.49
2023-02-04T13:30:16.527Z,18.50
2023-02-04T13:32:43.821Z,18.50
2023-02-04T13:35:10.809Z,18.51
2023-02-04T13:37:38.951Z,18.53
2023-02-04T13:40:08.097Z,18.54
2023-02-04T13:42:35.765Z,18.54
2023-02-04T13:45:03.035Z,18.52
2023-02-04T13:47:30.061Z,18.53
2023-02-04T13:49:57.632Z,18.52
2023-02-04T13:52:24.543Z,18.51
2023-02-04T13:54:51.713Z,18.50
2023-02-04T13:57:18.773Z,18.48
2023-02-04T13:59:45.827Z,18.47
2023-02-04T14:02:13.077Z,18.46
2023-02-04T14:04:40.215Z,18.45
2023-02-04T14:07:08.554Z,18.44
2023-02-04T14:09:35.540Z,18.43
2023-02-04T14:12:03.207Z,18.41
2023-02-04T14:14:30.149Z,18.40
2023-02-04T14:16:57.472Z,18.40
2023-02-04T14:19:27.781Z,18.40
2023-02-04T14:21:58.880Z,18.41
2023-02-04T14:24:26.422Z,18.42
2023-02-04T14:26:53.664Z,18.43
2023-02-04T14:29:20.719Z,18.43
2023-02-04T14:31:47.956Z,18.43
2023-02-04T14:34:15.017Z,18.42
2023-02-04T14:36:41.966Z,18.41
2023-02-04T14:39:09.229Z,18.40
2023-02-04T14:41:36.204Z,18.39
2023-02-04T14:44:03.290Z,18.39
2023-02-04T14:46:30.351Z,18.37
2023-02-04T14:48:57.427Z,18.36
2023-02-04T14:51:24.957Z,18.35
2023-02-04T14:53:52.322Z,18.34
2023-02-04T14:56:19.804Z,18.33
2023-02-04T14:58:46.845Z,18.32
2023-02-04T15:01:13.773Z,18.32
2023-02-04T15:03:40.812Z,18.33
2023-02-04T15:06:08.065Z,18.34
2023-02-04T15:08:35.836Z,18.35
2023-02-04T15:11:03.363Z,18.35
2023-02-04T15:13:30.467Z,18.37
2023-02-04T15:15:57.305Z,18.38
2023-02-04T15:18:24.546Z,18.40
2023-02-04T15:20:51.673Z,18.40
2023-02-04T15:23:18.763Z,18.40
2023-02-04T15:25:47.337Z,18.40
2023-02-04T15:28:14.479Z,18.40
2023-02-04T15:30:41.890Z,18.41
2023-02-04T15:33:09.019Z,18.42
2023-02-04T15:35:35.894Z,18.42
2023-02-04T15:38:02.792Z,18.43
2023-02-04T15:40:30.349Z,18.44
2023-02-04T15:42:57.419Z,18.45
2023-02-04T15:45:24.468Z,18.46
2023-02-04T15:47:51.543Z,18.47
2023-02-04T15:50:21.372Z,18.47
2023-02-04T15:52:48.412Z,18.47
2023-02-04T15:55:15.615Z,18.46
2023-02-04T15:57:42.573Z,18.45
2023-02-04T16:00:10.355Z,18.43
2023-02-04T16:02:40.876Z,18.43
2023-02-04T16:05:23.083Z,18.43
2023-02-04T16:07:53.902Z,18.42
2023-02-04T16:10:23.013Z,18.41
2023-02-04T16:12:55.710Z,18.41
2023-02-04T16:15:24.566Z,18.41
2023-02-04T16:17:52.489Z,18.41
2023-02-04T16:20:19.982Z,18.41
2023-02-04T16:22:47.880Z,18.42
2023-02-04T16:25:15.470Z,18.41
2023-02-04T16:27:43.561Z,18.42
2023-02-04T16:30:12.350Z,18.41
2023-02-04T16:32:39.701Z,18.41
2023-02-04T16:35:07.341Z,18.41
2023-02-04T16:37:35.614Z,18.41
2023-02-04T16:40:03.327Z,18.41
2023-02-04T16:42:33.307Z,18.41
2023-02-04T16:45:03.934Z,18.41
2023-02-04T16:47:41.256Z,18.41
2023-02-04T16:50:14.046Z,18.41
2023-02-04T16:52:41.660Z,18.40
2023-02-04T16:55:10.236Z,18.39
2023-02-04T16:57:37.162Z,18.38
2023-02-04T17:00:04.860Z,18.37
2023-02-04T17:02:34.804Z,18.37
2023-02-04T17:05:05.913Z,18.37
2023-02-04T17:07:33.055Z,18.38
2023-02-04T17:10:01.521Z,18.38
2023-02-04T17:12:28.773Z,18.39
2023-02-04T17:14:55.927Z,18.38
2023-02-04T17:17:24.093Z,18.38
2023-02-04T17:19:51.967Z,18.37
2023-02-04T17:22:19.113Z,18.36
2023-02-04T17:24:46.363Z,18.35
2023-02-04T17:27:13.611Z,18.34
2023-02-04T17:29:40.735Z,18.32
2023-02-04T17:32:08.946Z,18.31
2023-02-04T17:34:38.020Z,18.29
2023-02-04T17:37:05.460Z,18.29
2023-02-04T17:39:32.635Z,18.30
2023-02-04T17:41:59.510Z,18.31
2023-02-04T17:44:27.732Z,18.32
2023-02-04T17:46:55.457Z,18.32
2023-02-04T17:49:22.435Z,18.32
2023-02-04T17:51:49.772Z,18.32
2023-02-04T17:54:16.740Z,18.33
2023-02-04T17:56:43.803Z,18.35
2023-02-04T17:59:11.413Z,18.36
2023-02-04T18:01:38.886Z,18.37
2023-02-04T18:04:14.196Z,18.38
2023-02-04T18:06:41.940Z,18.39
2023-02-04T18:09:15.549Z,18.40
2023-02-04T18:11:43.524Z,18.40
2023-02-04T18:14:24.794Z,18.40
2023-02-04T18:16:58.732Z,18.40
2023-02-04T18:19:29.942Z,18.39
2023-02-04T18:22:09.106Z,18.40
2023-02-04T18:24:39.946Z,18.41
2023-02-04T18:27:24.485Z,18.41
2023-02-04T18:29:59.340Z,18.41
2023-02-04T18:32:34.109Z,18.42
2023-02-04T18:35:04.669Z,18.42
2023-02-04T18:37:46.974Z,18.42
2023-02-04T18:40:35.753Z,18.42
2023-02-04T18:43:12.684Z,18.40
2023-02-04T18:45:41.121Z,18.41
2023-02-04T18:48:20.405Z,18.41
2023-02-04T18:50:54.367Z,18.41
2023-02-04T18:53:27.001Z,18.40
2023-02-04T18:55:58.102Z,18.41
2023-02-04T18:58:36.346Z,18.41
2023-02-04T19:01:35.505Z,18.43
2023-02-04T19:04:12.324Z,18.44
2023-02-04T19:06:42.785Z,18.45
2023-02-04T19:09:13.437Z,18.45
2023-02-04T19:11:49.233Z,18.46
2023-02-04T19:14:19.271Z,18.47
2023-02-04T19:16:48.554Z,18.48
2023-02-04T19:19:35.542Z,18.49
2023-02-04T19:22:38.276Z,18.50
2023-02-04T19:25:36.985Z,18.49
2023-02-04T19:28:24.495Z,18.48
2023-02-04T19:31:01.160Z,18.47
2023-02-04T19:33:40.076Z,18.47
2023-02-04T19:36:23.687Z,18.46
2023-02-04T19:39:02.583Z,18.46
2023-02-04T19:41:54.902Z,18.47
2023-02-04T19:44:31.439Z,18.46
2023-02-04T19:47:28.273Z,18.45
2023-02-04T19:50:14.662Z,18.44
2023-02-04T19:52:50.313Z,18.43
2023-02-04T19:55:18.616Z,18.43
2023-02-04T19:57:51.819Z,18.41
2023-02-04T20:00:59.195Z,18.42
2023-02-04T20:06:36.296Z,18.43
2023-02-04T20:09:25.101Z,18.44
2023-02-04T20:12:14.110Z,18.45
2023-02-04T20:14:49.907Z,18.46
2023-02-04T20:17:20.961Z,18.50
2023-02-04T20:19:48.999Z,18.52
2023-02-04T20:22:19.042Z,18.53
2023-02-04T20:24:47.213Z,18.55
2023-02-04T20:27:23.733Z,18.56
2023-02-04T20:30:21.448Z,18.57
2023-02-04T20:32:54.058Z,18.58
2023-02-04T20:35:21.046Z,18.60
2023-02-04T20:37:56.499Z,18.61
2023-02-04T20:40:29.273Z,18.63
2023-02-04T20:43:03.220Z,18.63
2023-02-04T20:45:41.116Z,18.62
2023-02-04T20:48:17.046Z,18.61
2023-02-04T20:50:46.178Z,18.61
2023-02-04T20:53:41.528Z,18.62
2023-02-04T20:56:27.062Z,18.64
2023-02-04T20:59:12.141Z,18.62
2023-02-04T21:01:46.778Z,18.60
2023-02-04T21:04:22.286Z,18.60
2023-02-04T21:06:54.917Z,18.61
2023-02-04T21:09:24.088Z,18.60
2023-02-04T21:11:53.140Z,18.60
2023-02-04T21:14:20.862Z,18.61
2023-02-04T21:16:54.050Z,18.62
2023-02-04T21:19:24.771Z,18.61
2023-02-04T21:21:52.435Z,18.61
2023-02-04T21:24:19.453Z,18.61
2023-02-04T21:26:46.345Z,18.62
2023-02-04T21:29:13.980Z,18.62
2023-02-04T21:31:46.293Z,18.62
2023-02-04T21:34:13.774Z,18.62
2023-02-04T21:36:41.335Z,18.61
2023-02-04T21:39:08.581Z,18.61
2023-02-04T21:41:36.218Z,18.60
2023-02-04T21:44:03.266Z,18.59
2023-02-04T21:46:30.316Z,18.57
2023-02-04T21:48:57.361Z,18.55
2023-02-04T21:51:26.854Z,18.54
2023-02-04T21:53:53.902Z,18.51
2023-02-04T21:56:20.932Z,18.49
2023-02-04T21:58:47.901Z,18.47
2023-02-04T22:01:14.840Z,18.46
2023-02-04T22:03:42.089Z,18.44
2023-02-04T22:06:09.445Z,18.43
2023-02-04T22:08:36.386Z,18.41
2023-02-04T22:11:03.363Z,18.41
2023-02-04T22:13:48.914Z,18.41
2023-02-04T22:16:15.842Z,18.42
2023-02-04T22:18:42.934Z,18.43
2023-02-04T22:21:09.859Z,18.44
2023-02-04T22:23:36.732Z,18.44
2023-02-04T22:26:03.855Z,18.44
2023-02-04T22:28:30.903Z,18.43
2023-02-04T22:30:58.032Z,18.43
2023-02-04T22:33:24.986Z,18.42
2023-02-04T22:35:51.936Z,18.42
2023-02-04T22:38:21.174Z,18.42
2023-02-04T22:40:48.810Z,18.41
2023-02-04T22:43:16.169Z,18.41
2023-02-04T22:45:43.235Z,18.39
2023-02-04T22:48:10.559Z,18.38
2023-02-04T22:50:37.600Z,18.37
2023-02-04T22:53:04.869Z,18.36
2023-02-04T22:55:32.016Z,18.35
2023-02-04T22:57:59.363Z,18.33
2023-02-04T23:00:26.317Z,18.32
2023-02-04T23:02:53.552Z,18.31
2023-02-04T23:05:20.435Z,18.29
2023-02-04T23:07:47.442Z,18.28
2023-02-04T23:10:14.592Z,18.28
2023-02-04T23:12:41.529Z,18.28
2023-02-04T23:15:11.760Z,18.27
2023-02-04T23:17:38.628Z,18.27
2023-02-04T23:20:05.923Z,18.27
2023-02-04T23:22:33.115Z,18.28
2023-02-04T23:25:00.222Z,18.30
2023-02-04T23:27:27.393Z,18.32
2023-02-04T23:29:54.369Z,18.34
2023-02-04T23:32:21.531Z,18.37
2023-02-04T23:34:48.552Z,18.38
2023-02-04T23:37:15.482Z,18.40
2023-02-04T23:39:42.398Z,18.40
2023-02-04T23:42:09.542Z,18.40
2023-02-04T23:44:36.840Z,18.39
2023-02-04T23:47:03.851Z,18.39
2023-02-04T23:49:31.036Z,18.38
2023-02-04T23:51:58.076Z,18.37
2023-02-04T23:54:25.019Z,18.35
2023-02-04T23:56:52.689Z,18.34
2023-02-04T23:59:19.742Z,18.32
